createdAt,value
2023-03-10T00:01:29.809Z,83.55
2023-03-10T00:03:59.396Z,83.63
2023-03-10T00:06:29.268Z,83.55
2023-03-10T00:08:59.389Z,83.64
2023-03-10T00:11:27.791Z,83.34
2023-03-10T00:13:57.182Z,83.61
2023-03-10T00:16:29.685Z,83.62
2023-03-10T00:18:59.314Z,83.41
2023-03-10T00:21:30.261Z,83.44
2023-03-10T00:23:59.321Z,83.39
2023-03-10T00:26:29.095Z,83.37
2023-03-10T00:28:57.406Z,83.20
2023-03-10T00:31:28.039Z,83.15
2023-03-10T00:33:56.570Z,82.89
2023-03-10T00:36:28.410Z,82.64
2023-03-10T00:38:57.466Z,82.55
2023-03-10T00:41:27.719Z,82.52
2023-03-10T00:43:55.945Z,82.62
2023-03-10T00:46:25.554Z,82.23
2023-03-10T00:48:53.780Z,82.19
2023-03-10T00:51:22.174Z,82.31
2023-03-10T00:53:50.940Z,82.00
2023-03-10T00:56:24.538Z,81.81
2023-03-10T00:58:56.069Z,82.37
2023-03-10T01:01:39.788Z,82.19
2023-03-10T01:04:14.307Z,81.99
2023-03-10T01:06:44.663Z,81.81
2023-03-10T01:09:14.871Z,81.66
2023-03-10T01:11:43.148Z,81.93
2023-03-10T01:14:13.467Z,81.85
2023-03-10T01:16:41.648Z,81.98
2023-03-10T01:19:09.853Z,82.00
2023-03-10T01:21:38.530Z,82.32
2023-03-10T01:24:07.015Z,82.38
2023-03-10T01:26:35.882Z,82.39
2023-03-10T01:29:05.501Z,82.25
2023-03-10T01:31:33.840Z,82.45
2023-03-10T01:34:03.587Z,82.52
2023-03-10T01:36:31.844Z,82.47
2023-03-10T01:39:00.526Z,82.93
2023-03-10T01:41:29.090Z,82.96
2023-03-10T01:43:57.771Z,83.01
2023-03-10T01:46:38.502Z,83.11
2023-03-10T01:49:19.502Z,83.23
2023-03-10T01:51:54.212Z,83.10
2023-03-10T01:54:26.253Z,82.96
2023-03-10T01:56:54.485Z,82.94
2023-03-10T01:59:22.701Z,82.84
2023-03-10T02:01:51.254Z,82.51
2023-03-10T02:04:27.368Z,82.56
2023-03-10T02:06:55.731Z,82.35
2023-03-10T02:09:25.010Z,82.34
2023-03-10T02:11:53.307Z,82.48
2023-03-10T02:14:24.679Z,82.47
2023-03-10T02:16:53.303Z,82.44
2023-03-10T02:19:45.057Z,82.24
2023-03-10T02:22:15.660Z,82.31
2023-03-10T02:24:54.846Z,82.49
2023-03-10T02:27:24.974Z,82.50
2023-03-10T02:30:02.728Z,82.45
2023-03-10T02:32:36.078Z,82.43
2023-03-10T02:35:04.829Z,82.49
2023-03-10T02:37:34.313Z,82.44
2023-03-10T02:40:05.031Z,82.32
2023-03-10T02:42:35.949Z,82.49
2023-03-10T02:45:05.522Z,82.71
2023-03-10T02:47:34.493Z,82.68
2023-03-10T02:50:05.147Z,82.76
2023-03-10T02:52:47.553Z,82.70
2023-03-10T02:55:17.349Z,82.59
2023-03-10T02:57:45.667Z,82.68
2023-03-10T03:00:14.306Z,82.72
2023-03-10T03:02:44.368Z,82.55
2023-03-10T03:05:13.960Z,82.59
2023-03-10T03:07:42.443Z,82.48
2023-03-10T03:10:12.121Z,82.17
2023-03-10T03:12:40.606Z,82.10
2023-03-10T03:15:13.900Z,82.09
2023-03-10T03:17:43.952Z,82.10
2023-03-10T03:20:15.697Z,82.16
2023-03-10T03:22:47.742Z,82.24
2023-03-10T03:25:18.061Z,82.24
2023-03-10T03:27:47.010Z,82.29
2023-03-10T03:30:17.496Z,82.14
2023-03-10T03:32:45.950Z,81.83
2023-03-10T03:35:17.337Z,81.82
2023-03-10T03:37:46.346Z,81.81
2023-03-10T03:40:15.888Z,81.69
2023-03-10T03:42:48.413Z,81.63
2023-03-10T03:45:20.237Z,81.60
2023-03-10T03:47:49.717Z,81.32
2023-03-10T03:50:19.271Z,81.20
2023-03-10T03:52:47.654Z,81.17
2023-03-10T03:55:17.109Z,81.02
2023-03-10T03:57:47.475Z,80.74
2023-03-10T04:00:18.753Z,80.44
2023-03-10T04:02:47.472Z,80.49
2023-03-10T04:05:19.581Z,80.41
2023-03-10T04:07:50.129Z,80.45
2023-03-10T04:10:20.858Z,80.21
2023-03-10T04:12:57.135Z,80.14
2023-03-10T04:15:25.766Z,80.08
2023-03-10T04:17:57.869Z,80.09
2023-03-10T04:20:26.630Z,80.03
2023-03-10T04:22:55.675Z,79.82
2023-03-10T04:28:26.284Z,79.65
2023-03-10T04:30:55.517Z,79.61
2023-03-10T04:33:28.997Z,79.37
2023-03-10T04:35:57.618Z,79.25
2023-03-10T04:38:28.265Z,79.13
2023-03-10T04:40:56.911Z,78.94
2023-03-10T04:43:27.603Z,79.10
2023-03-10T04:45:56.407Z,79.01
2023-03-10T04:48:24.914Z,78.99
2023-03-10T04:51:01.557Z,79.03
2023-03-10T04:53:32.797Z,78.91
2023-03-10T04:56:03.583Z,78.82
2023-03-10T04:58:32.819Z,78.90
2023-03-10T05:01:03.430Z,78.82
2023-03-10T05:03:37.124Z,78.73
2023-03-10T05:06:15.584Z,78.67
2023-03-10T05:08:46.244Z,78.41
2023-03-10T05:11:14.640Z,78.30
2023-03-10T05:13:43.037Z,78.26
2023-03-10T05:16:16.787Z,78.14
2023-03-10T05:18:47.510Z,78.02
2023-03-10T05:21:16.848Z,78.08
2023-03-10T05:23:46.526Z,78.10
2023-03-10T05:26:15.850Z,77.93
2023-03-10T05:28:47.809Z,77.84
2023-03-10T05:31:26.155Z,77.76
2023-03-10T05:33:58.460Z,77.65
2023-03-10T05:36:26.916Z,77.67
2023-03-10T05:38:55.350Z,77.42
2023-03-10T05:41:23.575Z,77.37
2023-03-10T05:43:54.555Z,77.20
2023-03-10T05:46:24.587Z,77.07
2023-03-10T05:48:56.092Z,77.00
2023-03-10T05:51:25.171Z,76.90
2023-03-10T05:53:53.544Z,76.85
2023-03-10T05:56:26.083Z,76.76
2023-03-10T05:58:57.031Z,76.61
2023-03-10T06:01:29.637Z,76.51
2023-03-10T06:03:58.587Z,76.37
2023-03-10T06:06:26.750Z,76.10
2023-03-10T06:08:56.743Z,76.08
2023-03-10T06:11:26.398Z,76.09
2023-03-10T06:13:55.341Z,75.65
2023-03-10T06:16:23.628Z,75.53
2023-03-10T06:18:56.682Z,75.44
2023-03-10T06:21:25.379Z,75.20
2023-03-10T06:23:53.838Z,75.13
2023-03-10T06:26:22.907Z,75.00
2023-03-10T06:28:51.461Z,74.94
2023-03-10T06:31:22.414Z,74.97
2023-03-10T06:33:51.051Z,74.81
2023-03-10T06:36:20.970Z,74.71
2023-03-10T06:38:49.239Z,74.66
2023-03-10T06:41:17.644Z,74.27
2023-03-10T06:43:45.883Z,73.82
2023-03-10T06:46:16.548Z,73.96
2023-03-10T06:48:46.779Z,73.64
2023-03-10T06:51:17.348Z,73.13
2023-03-10T06:53:46.280Z,73.05
2023-03-10T06:56:19.591Z,72.77
2023-03-10T06:58:49.793Z,72.02
2023-03-10T07:01:29.351Z,71.80
2023-03-10T07:03:58.256Z,70.94
2023-03-10T07:06:32.353Z,70.47
2023-03-10T07:09:21.014Z,70.31
2023-03-10T07:11:49.945Z,69.40
2023-03-10T07:14:18.478Z,68.99
2023-03-10T07:16:46.773Z,68.58
2023-03-10T07:19:15.497Z,68.16
2023-03-10T07:21:44.274Z,67.76
2023-03-10T07:24:14.383Z,68.23
2023-03-10T07:26:42.965Z,68.26
2023-03-10T07:29:12.279Z,68.21
2023-03-10T07:31:41.110Z,67.57
2023-03-10T07:34:10.784Z,67.30
2023-03-10T07:36:39.389Z,67.12
2023-03-10T07:39:07.636Z,67.19
2023-03-10T07:41:36.112Z,67.73
2023-03-10T07:44:04.892Z,68.01
2023-03-10T07:46:34.556Z,67.86
2023-03-10T07:49:06.836Z,67.82
2023-03-10T07:51:35.983Z,67.72
2023-03-10T07:54:04.528Z,67.68
2023-03-10T07:56:33.880Z,67.65
2023-03-10T07:59:02.474Z,67.87
2023-03-10T08:01:36.144Z,68.01
2023-03-10T08:04:05.360Z,67.53
2023-03-10T08:06:35.765Z,67.58
2023-03-10T08:09:04.247Z,67.36
2023-03-10T08:11:32.537Z,67.55
2023-03-10T08:14:02.188Z,67.44
2023-03-10T08:16:31.105Z,67.31
2023-03-10T08:18:59.596Z,67.25
2023-03-10T08:21:28.246Z,67.09
2023-03-10T08:23:57.161Z,66.95
2023-03-10T08:26:25.424Z,66.77
2023-03-10T08:28:53.815Z,66.91
2023-03-10T08:31:22.136Z,66.73
2023-03-10T08:33:54.622Z,66.29
2023-03-10T08:36:24.370Z,66.07
2023-03-10T08:38:54.272Z,66.20
2023-03-10T08:41:24.866Z,66.19
2023-03-10T08:43:57.370Z,66.09
2023-03-10T08:46:28.248Z,65.96
2023-03-10T08:48:56.854Z,66.03
2023-03-10T08:51:26.154Z,66.11
2023-03-10T08:53:54.568Z,65.56
2023-03-10T08:56:23.200Z,65.00
2023-03-10T08:58:54.522Z,64.72
2023-03-10T09:01:23.174Z,64.14
2023-03-10T09:03:51.440Z,63.91
2023-03-10T09:06:19.859Z,63.59
2023-03-10T09:08:50.777Z,62.97
2023-03-10T09:11:25.770Z,62.63
2023-03-10T09:13:54.470Z,62.33
2023-03-10T09:16:24.882Z,61.97
2023-03-10T09:18:53.168Z,61.92
2023-03-10T09:21:21.617Z,61.62
2023-03-10T09:23:50.477Z,61.45
2023-03-10T09:26:19.798Z,61.53
2023-03-10T09:28:51.228Z,61.49
2023-03-10T09:31:23.385Z,61.06
2023-03-10T09:33:53.025Z,61.14
2023-03-10T09:36:25.020Z,61.13
2023-03-10T09:38:54.796Z,60.41
2023-03-10T09:41:34.621Z,59.57
2023-03-10T09:44:23.892Z,59.21
2023-03-10T09:46:52.713Z,58.93
2023-03-10T09:49:57.395Z,59.04
2023-03-10T09:52:30.336Z,58.20
2023-03-10T09:55:07.311Z,58.04
2023-03-10T09:57:35.664Z,57.55
2023-03-10T10:00:11.719Z,57.27
2023-03-10T10:02:43.742Z,56.87
2023-03-10T10:05:27.521Z,56.56
2023-03-10T10:07:58.284Z,56.52
2023-03-10T10:10:28.785Z,56.66
2023-03-10T10:13:12.752Z,56.30
2023-03-10T10:15:47.442Z,56.26
2023-03-10T10:18:25.691Z,55.89
2023-03-10T10:21:02.424Z,56.09
2023-03-10T10:23:50.825Z,56.15
2023-03-10T10:26:26.453Z,56.91
2023-03-10T10:28:59.572Z,57.29
2023-03-10T10:31:28.495Z,57.67
2023-03-10T10:34:00.613Z,58.15
2023-03-10T10:36:48.343Z,58.96
2023-03-10T10:39:37.291Z,59.11
2023-03-10T10:42:28.597Z,59.48
2023-03-10T10:45:04.945Z,59.55
2023-03-10T10:47:36.325Z,59.79
2023-03-10T10:50:18.346Z,59.67
2023-03-10T10:52:50.654Z,60.16
2023-03-10T10:55:30.355Z,60.53
2023-03-10T10:58:01.771Z,60.45
2023-03-10T11:00:32.470Z,60.81
2023-03-10T11:03:19.335Z,60.98
2023-03-10T11:05:48.560Z,61.33
2023-03-10T11:08:27.098Z,61.59
2023-03-10T11:10:59.401Z,61.81
2023-03-10T11:14:00.189Z,61.80
2023-03-10T11:16:47.172Z,61.78
2023-03-10T11:19:28.542Z,62.17
2023-03-10T11:22:03.041Z,62.30
2023-03-10T11:24:46.010Z,62.45
2023-03-10T11:27:32.152Z,62.54
2023-03-10T11:30:02.345Z,62.82
2023-03-10T11:32:41.210Z,62.94
2023-03-10T11:35:24.234Z,63.35
2023-03-10T11:38:10.740Z,63.11
2023-03-10T11:40:49.410Z,63.32
2023-03-10T11:43:26.854Z,63.45
2023-03-10T11:45:55.595Z,63.74
2023-03-10T11:49:12.438Z,63.58
2023-03-10T11:51:48.490Z,63.54
2023-03-10T11:54:35.404Z,63.53
2023-03-10T11:57:09.817Z,63.81
2023-03-10T11:59:43.380Z,63.44
2023-03-10T12:02:27.429Z,63.91
2023-03-10T12:05:13.567Z,63.50
2023-03-10T12:07:45.961Z,63.39
2023-03-10T12:10:22.020Z,63.38
2023-03-10T12:12:51.367Z,63.45
2023-03-10T12:15:37.164Z,63.64
2023-03-10T12:18:08.051Z,63.31
2023-03-10T12:20:36.457Z,64.08
2023-03-10T12:23:10.086Z,64.24
2023-03-10T12:25:39.271Z,64.44
2023-03-10T12:28:16.870Z,64.63
2023-03-10T12:30:47.473Z,64.41
2023-03-10T12:33:39.715Z,64.25
2023-03-10T12:36:32.830Z,64.36
2023-03-10T12:39:26.358Z,64.34
2023-03-10T12:42:35.025Z,63.85
2023-03-10T12:45:29.593Z,63.43
2023-03-10T12:48:02.054Z,63.23
2023-03-10T12:50:42.478Z,63.06
2023-03-10T12:53:11.547Z,62.55
2023-03-10T12:55:43.704Z,62.69
2023-03-10T12:58:23.337Z,62.56
2023-03-10T13:00:58.171Z,62.33
2023-03-10T13:03:35.566Z,62.03
2023-03-10T13:06:04.028Z,61.79
2023-03-10T13:08:50.180Z,61.38
2023-03-10T13:11:18.440Z,60.83
2023-03-10T13:13:53.940Z,60.20
2023-03-10T13:16:22.218Z,59.78
2023-03-10T13:18:54.280Z,59.16
2023-03-10T13:21:29.634Z,58.51
2023-03-10T13:24:04.443Z,57.15
2023-03-10T13:26:34.151Z,56.59
2023-03-10T13:29:04.312Z,55.32
2023-03-10T13:31:33.986Z,55.04
2023-03-10T13:34:21.284Z,54.42
2023-03-10T13:36:49.810Z,54.48
2023-03-10T13:39:27.457Z,54.60
2023-03-10T13:41:58.690Z,54.08
2023-03-10T13:44:34.677Z,53.79
2023-03-10T13:47:04.878Z,54.12
2023-03-10T13:49:35.299Z,53.68
2023-03-10T13:52:06.685Z,53.66
2023-03-10T13:54:41.201Z,53.13
2023-03-10T13:57:31.111Z,52.66
2023-03-10T14:00:00.192Z,52.50
2023-03-10T14:02:48.089Z,52.01
2023-03-10T14:05:39.590Z,51.91
2023-03-10T14:08:28.108Z,51.22
2023-03-10T14:11:22.073Z,51.21
2023-03-10T14:13:50.378Z,51.57
2023-03-10T14:16:18.961Z,52.13
2023-03-10T14:18:51.303Z,52.77
2023-03-10T14:21:25.072Z,53.29
2023-03-10T14:23:53.727Z,54.18
2023-03-10T14:26:23.613Z,54.58
2023-03-10T14:28:51.775Z,55.26
2023-03-10T14:31:22.060Z,55.92
2023-03-10T14:33:51.010Z,56.50
2023-03-10T14:36:19.549Z,57.11
2023-03-10T14:38:49.671Z,57.63
2023-03-10T14:41:19.053Z,58.12
2023-03-10T14:43:47.268Z,58.68
2023-03-10T14:46:15.720Z,59.02
2023-03-10T14:48:46.131Z,59.57
2023-03-10T14:51:28.972Z,59.96
2023-03-10T14:54:01.452Z,60.31
2023-03-10T14:56:33.556Z,60.67
2023-03-10T14:59:02.747Z,60.99
2023-03-10T15:01:32.397Z,61.42
2023-03-10T15:04:00.923Z,61.63
2023-03-10T15:06:29.876Z,61.90
2023-03-10T15:09:05.011Z,61.96
2023-03-10T15:11:37.245Z,62.02
2023-03-10T15:14:17.847Z,62.06
2023-03-10T15:16:49.064Z,62.01
2023-03-10T15:19:21.307Z,62.20
2023-03-10T15:21:49.635Z,61.93
2023-03-10T15:24:18.014Z,61.96
2023-03-10T15:26:49.133Z,61.97
2023-03-10T15:29:23.679Z,62.10
2023-03-10T15:31:52.794Z,62.00
2023-03-10T15:34:22.914Z,62.04
2023-03-10T15:36:51.498Z,62.02
2023-03-10T15:39:31.139Z,62.04
2023-03-10T15:42:00.540Z,62.00
2023-03-10T15:44:29.541Z,62.08
2023-03-10T15:47:00.167Z,62.31
2023-03-10T15:49:30.751Z,62.49
2023-03-10T15:51:59.389Z,62.46
2023-03-10T15:54:27.764Z,62.83
2023-03-10T15:56:56.464Z,62.98
2023-03-10T15:59:28.053Z,63.38
2023-03-10T16:01:57.631Z,63.68
2023-03-10T16:04:26.084Z,63.88
2023-03-10T16:06:55.029Z,63.99
2023-03-10T16:09:23.334Z,64.27
2023-03-10T16:11:52.240Z,64.44
2023-03-10T16:14:26.464Z,64.90
2023-03-10T16:16:55.224Z,65.18
2023-03-10T16:19:23.383Z,65.30
2023-03-10T16:21:52.690Z,65.70
2023-03-10T16:24:21.980Z,66.23
2023-03-10T16:26:50.190Z,66.54
2023-03-10T16:29:19.989Z,66.92
2023-03-10T16:31:48.353Z,67.20
2023-03-10T16:34:18.253Z,67.21
2023-03-10T16:36:49.743Z,67.50
2023-03-10T16:39:18.804Z,67.76
2023-03-10T16:41:49.973Z,67.77
2023-03-10T16:44:22.118Z,67.93
2023-03-10T16:46:50.458Z,68.03
2023-03-10T16:49:18.725Z,68.49
2023-03-10T16:51:47.357Z,68.71
2023-03-10T16:54:20.683Z,68.73
2023-03-10T16:56:50.870Z,69.13
2023-03-10T16:59:21.758Z,69.23
2023-03-10T17:01:50.654Z,69.31
2023-03-10T17:04:19.356Z,69.71
2023-03-10T17:06:48.862Z,69.74
2023-03-10T17:09:17.446Z,69.84
2023-03-10T17:11:55.190Z,70.30
2023-03-10T17:14:24.590Z,70.63
2023-03-10T17:16:54.157Z,70.64
2023-03-10T17:19:28.850Z,71.06
2023-03-10T17:21:57.475Z,71.32
2023-03-10T17:24:27.591Z,71.56
2023-03-10T17:26:57.043Z,71.77
2023-03-10T17:29:25.634Z,72.16
2023-03-10T17:31:56.935Z,72.08
2023-03-10T17:34:27.240Z,72.36
2023-03-10T17:36:56.510Z,71.99
2023-03-10T17:39:27.867Z,72.39
2023-03-10T17:41:56.211Z,72.45
2023-03-10T17:44:27.519Z,72.46
2023-03-10T17:46:58.965Z,72.41
2023-03-10T17:49:27.713Z,72.38
2023-03-10T17:51:55.977Z,72.58
2023-03-10T17:54:26.490Z,72.44
2023-03-10T17:56:55.432Z,72.57
2023-03-10T17:59:23.603Z,72.71
2023-03-10T18:01:53.088Z,72.57
2023-03-10T18:04:21.709Z,72.59
2023-03-10T18:06:55.793Z,72.84
2023-03-10T18:09:43.872Z,72.78
2023-03-10T18:12:13.325Z,72.52
2023-03-10T18:14:44.817Z,72.85
2023-03-10T18:17:13.069Z,73.32
2023-03-10T18:19:52.406Z,73.05
2023-03-10T18:22:22.686Z,73.08
2023-03-10T18:24:51.006Z,73.19
2023-03-10T18:27:19.593Z,72.99
2023-03-10T18:29:47.991Z,73.15
2023-03-10T18:32:19.040Z,73.30
2023-03-10T18:34:49.813Z,73.25
2023-03-10T18:37:26.654Z,73.16
2023-03-10T18:40:06.135Z,73.12
2023-03-10T18:42:41.095Z,73.33
2023-03-10T18:45:10.529Z,73.30
2023-03-10T18:47:39.088Z,73.46
2023-03-10T18:50:25.905Z,73.30
2023-03-10T18:52:59.479Z,73.38
2023-03-10T18:55:27.893Z,73.46
2023-03-10T18:57:56.618Z,73.51
2023-03-10T19:00:25.776Z,73.40
2023-03-10T19:02:54.722Z,73.66
2023-03-10T19:05:23.195Z,73.58
2023-03-10T19:07:51.439Z,73.78
2023-03-10T19:10:19.858Z,73.94
2023-03-10T19:12:50.067Z,74.15
2023-03-10T19:15:18.904Z,74.26
2023-03-10T19:36:04.997Z,74.81
2023-03-10T19:38:46.777Z,75.07
2023-03-10T19:42:18.322Z,75.19
2023-03-10T19:44:57.529Z,75.45
2023-03-10T19:47:26.538Z,75.49
2023-03-10T19:49:58.349Z,75.52
2023-03-10T19:52:26.759Z,75.79
2023-03-10T19:54:55.112Z,75.65
2023-03-10T19:57:23.514Z,75.78
2023-03-10T19:59:52.596Z,75.95
2023-03-10T20:02:20.911Z,76.10
2023-03-10T20:04:50.710Z,75.82
2023-03-10T20:07:18.930Z,76.14
2023-03-10T20:09:49.741Z,76.26
2023-03-10T20:12:18.532Z,76.31
2023-03-10T20:14:47.500Z,76.36
2023-03-10T20:17:17.954Z,76.65
2023-03-10T20:19:47.691Z,76.53
2023-03-10T20:22:19.104Z,76.56
2023-03-10T20:24:47.446Z,76.57
2023-03-10T20:27:15.725Z,76.71
2023-03-10T20:29:48.231Z,76.84
2023-03-10T20:32:16.693Z,76.81
2023-03-10T20:34:45.195Z,76.83
2023-03-10T20:37:13.409Z,77.11
2023-03-10T20:39:49.132Z,77.13
2023-03-10T20:42:17.402Z,76.87
2023-03-10T20:44:45.805Z,77.33
2023-03-10T20:47:15.006Z,77.18
2023-03-10T20:49:43.918Z,77.16
2023-03-10T20:52:12.442Z,77.18
2023-03-10T20:54:41.439Z,77.33
2023-03-10T20:57:09.841Z,77.38
2023-03-10T20:59:40.180Z,77.60
2023-03-10T21:02:39.292Z,77.50
2023-03-10T21:05:07.900Z,77.51
2023-03-10T21:07:36.358Z,77.53
2023-03-10T21:10:06.460Z,77.25
2023-03-10T21:12:35.614Z,77.84
2023-03-10T21:15:04.893Z,77.80
2023-03-10T21:17:34.956Z,77.72
2023-03-10T21:20:11.796Z,77.79
2023-03-10T21:22:40.193Z,77.79
2023-03-10T21:25:15.116Z,77.85
2023-03-10T21:27:47.828Z,77.76
2023-03-10T21:30:18.057Z,77.89
2023-03-10T21:33:02.762Z,77.90
2023-03-10T21:35:34.317Z,77.78
2023-03-10T21:38:04.930Z,77.86
2023-03-10T21:40:33.424Z,77.86
2023-03-10T21:43:04.569Z,78.21
2023-03-10T21:45:37.467Z,77.98
2023-03-10T21:48:06.390Z,78.23
2023-03-10T21:50:34.629Z,78.03
2023-03-10T21:53:03.374Z,78.42
2023-03-10T21:55:32.236Z,78.66
2023-03-10T21:58:00.521Z,78.49
2023-03-10T22:00:30.168Z,78.45
2023-03-10T22:02:58.907Z,78.77
2023-03-10T22:05:27.747Z,78.67
2023-03-10T22:08:01.473Z,78.77
2023-03-10T22:10:31.283Z,78.88
2023-03-10T22:12:59.596Z,78.97
2023-03-10T22:15:29.045Z,78.99
2023-03-10T22:18:00.114Z,79.20
2023-03-10T22:20:28.853Z,79.20
2023-03-10T22:22:57.416Z,79.15
2023-03-10T22:25:25.752Z,79.21
2023-03-10T22:27:55.780Z,78.93
2023-03-10T22:30:25.303Z,79.15
2023-03-10T22:32:54.070Z,78.94
2023-03-10T22:35:22.346Z,78.90
2023-03-10T22:37:51.726Z,79.09
2023-03-10T22:40:22.150Z,79.14
2023-03-10T22:42:55.706Z,79.33
2023-03-10T22:45:31.345Z,79.22
2023-03-10T22:48:02.108Z,79.35
2023-03-10T22:50:50.574Z,79.50
2023-03-10T22:53:19.486Z,79.31
2023-03-10T22:55:49.808Z,79.39
2023-03-10T22:58:22.183Z,79.32
2023-03-10T23:00:51.206Z,79.45
2023-03-10T23:03:20.905Z,79.48
2023-03-10T23:05:49.413Z,79.68
2023-03-10T23:08:18.900Z,79.64
2023-03-10T23:10:47.593Z,79.76
2023-03-10T23:13:17.567Z,79.55
2023-03-10T23:15:46.628Z,79.49
2023-03-10T23:18:15.673Z,79.37
2023-03-10T23:20:47.942Z,79.56
2023-03-10T23:23:16.498Z,79.71
2023-03-10T23:25:47.315Z,79.53
2023-03-10T23:28:19.512Z,79.56
2023-03-10T23:30:48.280Z,79.40
2023-03-10T23:33:19.265Z,79.47
2023-03-10T23:35:50.546Z,79.71
2023-03-10T23:38:19.237Z,79.51
2023-03-10T23:40:47.897Z,79.65
2023-03-10T23:43:16.545Z,79.82
2023-03-10T23:45:53.332Z,79.44
2023-03-10T23:48:24.725Z,79.60
2023-03-10T23:50:53.040Z,79.63
2023-03-10T23:53:22.065Z,79.45
2023-03-10T23:55:50.334Z,79.62
2023-03-10T23:58:19.896Z,79.87
